sensor_id;sensor_type;location;lat;lon;timestamp;temperature;humidity
52273;DHT22;38227;50.942;4.016;2022-11-15T00:01:10;11.70;99.90
52273;DHT22;38227;50.942;4.016;2022-11-15T00:03:50;11.70;99.90
52273;DHT22;38227;50.942;4.016;2022-11-15T00:06:19;11.80;99.90
52273;DHT22;38227;50.942;4.016;2022-11-15T00:08:49;11.80;99.90
52273;DHT22;38227;50.942;4.016;2022-11-15T00:11:28;11.90;99.90
52273;DHT22;38227;50.942;4.016;2022-11-15T00:14:02;11.90;99.90
52273;DHT22;38227;50.942;4.016;2022-11-15T00:16:41;12.00;99.90
52273;DHT22;38227;50.942;4.016;2022-11-15T00:19:13;12.00;99.90
52273;DHT22;38227;50.942;4.016;2022-11-15T00:21:41;12.00;99.90
52273;DHT22;38227;50.942;4.016;2022-11-15T00:24:21;12.00;99.90
52273;DHT22;38227;50.942;4.016;2022-11-15T00:26:51;12.00;99.90
52273;DHT22;38227;50.942;4.016;2022-11-15T00:29:31;12.10;99.90
52273;DHT22;38227;50.942;4.016;2022-11-15T00:32:01;12.00;99.90
52273;DHT22;38227;50.942;4.016;2022-11-15T00:34:35;12.10;99.90
52273;DHT22;38227;50.942;4.016;2022-11-15T00:37:05;12.20;99.90
52273;DHT22;38227;50.942;4.016;2022-11-15T00:39:47;12.20;99.90
52273;DHT22;38227;50.942;4.016;2022-11-15T00:42:16;12.10;99.90
52273;DHT22;38227;50.942;4.016;2022-11-15T00:44:47;12.10;99.90
52273;DHT22;38227;50.942;4.016;2022-11-15T00:47:25;12.10;99.90
52273;DHT22;38227;50.942;4.016;2022-11-15T00:49:57;12.20;99.90
52273;DHT22;38227;50.942;4.016;2022-11-15T00:52:29;12.30;99.90
52273;DHT22;38227;50.942;4.016;2022-11-15T00:55:00;12.40;99.90
52273;DHT22;38227;50.942;4.016;2022-11-15T00:57:40;12.40;99.90
52273;DHT22;38227;50.942;4.016;2022-11-15T01:00:11;12.30;99.90
52273;DHT22;38227;50.942;4.016;2022-11-15T01:02:44;12.30;99.90
52273;DHT22;38227;50.942;4.016;2022-11-15T01:05:23;12.30;99.90
52273;DHT22;38227;50.942;4.016;2022-11-15T01:08:01;12.40;99.90
52273;DHT22;38227;50.942;4.016;2022-11-15T01:10:37;12.40;99.90
52273;DHT22;38227;50.942;4.016;2022-11-15T01:13:14;12.50;99.90
52273;DHT22;38227;50.942;4.016;2022-11-15T01:16:07;12.50;99.90
52273;DHT22;38227;50.942;4.016;2022-11-15T01:18:47;12.40;99.90
52273;DHT22;38227;50.942;4.016;2022-11-15T01:21:34;12.40;99.90
52273;DHT22;38227;50.942;4.016;2022-11-15T01:24:07;12.50;99.90
52273;DHT22;38227;50.942;4.016;2022-11-15T01:26:39;12.40;99.90
52273;DHT22;38227;50.942;4.016;2022-11-15T01:29:14;12.40;99.90
52273;DHT22;38227;50.942;4.016;2022-11-15T01:31:46;12.40;99.90
52273;DHT22;38227;50.942;4.016;2022-11-15T01:34:19;12.30;99.90
52273;DHT22;38227;50.942;4.016;2022-11-15T01:37:06;12.40;99.90
52273;DHT22;38227;50.942;4.016;2022-11-15T01:39:39;12.40;99.90
52273;DHT22;38227;50.942;4.016;2022-11-15T01:42:14;12.40;99.90
52273;DHT22;38227;50.942;4.016;2022-11-15T01:44:52;12.30;99.90
52273;DHT22;38227;50.942;4.016;2022-11-15T01:47:39;12.30;99.90
52273;DHT22;38227;50.942;4.016;2022-11-15T01:50:19;12.30;99.90
52273;DHT22;38227;50.942;4.016;2022-11-15T01:52:53;12.40;99.90
52273;DHT22;38227;50.942;4.016;2022-11-15T01:55:25;12.40;99.90
52273;DHT22;38227;50.942;4.016;2022-11-15T01:58:01;12.40;99.90
52273;DHT22;38227;50.942;4.016;2022-11-15T02:00:34;12.40;99.90
52273;DHT22;38227;50.942;4.016;2022-11-15T02:03:07;12.40;99.90
52273;DHT22;38227;50.942;4.016;2022-11-15T02:05:37;12.40;99.90
52273;DHT22;38227;50.942;4.016;2022-11-15T02:08:18;12.30;99.90
52273;DHT22;38227;50.942;4.016;2022-11-15T02:10:48;12.30;99.90
52273;DHT22;38227;50.942;4.016;2022-11-15T02:13:28;12.20;99.90
52273;DHT22;38227;50.942;4.016;2022-11-15T02:20:05;12.20;99.90
52273;DHT22;38227;50.942;4.016;2022-11-15T02:32:42;12.20;99.90
52273;DHT22;38227;50.942;4.016;2022-11-15T02:39:27;12.20;99.90
52273;DHT22;38227;50.942;4.016;2022-11-15T02:42:26;12.20;99.90
52273;DHT22;38227;50.942;4.016;2022-11-15T02:45:25;12.20;99.90
52273;DHT22;38227;50.942;4.016;2022-11-15T02:47:59;12.20;99.90
52273;DHT22;38227;50.942;4.016;2022-11-15T02:50:34;12.20;99.90
52273;DHT22;38227;50.942;4.016;2022-11-15T02:53:07;12.30;99.90
52273;DHT22;38227;50.942;4.016;2022-11-15T02:55:46;12.30;99.90
52273;DHT22;38227;50.942;4.016;2022-11-15T02:58:44;12.40;99.90
52273;DHT22;38227;50.942;4.016;2022-11-15T03:05:33;12.30;99.90
52273;DHT22;38227;50.942;4.016;2022-11-15T03:11:42;12.30;99.90
52273;DHT22;38227;50.942;4.016;2022-11-15T03:14:43;12.20;99.90
52273;DHT22;38227;50.942;4.016;2022-11-15T03:17:35;12.20;99.90
52273;DHT22;38227;50.942;4.016;2022-11-15T03:20:20;12.20;99.90
52273;DHT22;38227;50.942;4.016;2022-11-15T03:23:09;12.20;99.90
52273;DHT22;38227;50.942;4.016;2022-11-15T03:25:49;12.20;99.90
52273;DHT22;38227;50.942;4.016;2022-11-15T03:28:26;12.20;99.90
52273;DHT22;38227;50.942;4.016;2022-11-15T03:31:03;12.20;99.90
52273;DHT22;38227;50.942;4.016;2022-11-15T03:33:57;12.20;99.90
52273;DHT22;38227;50.942;4.016;2022-11-15T03:36:28;12.20;99.90
52273;DHT22;38227;50.942;4.016;2022-11-15T03:39:04;12.20;99.90
52273;DHT22;38227;50.942;4.016;2022-11-15T03:42:04;12.20;99.90
52273;DHT22;38227;50.942;4.016;2022-11-15T03:47:49;12.10;99.90
52273;DHT22;38227;50.942;4.016;2022-11-15T03:50:26;12.00;99.90
52273;DHT22;38227;50.942;4.016;2022-11-15T03:52:57;12.00;99.90
52273;DHT22;38227;50.942;4.016;2022-11-15T03:55:35;12.00;99.90
52273;DHT22;38227;50.942;4.016;2022-11-15T03:58:05;11.90;99.90
52273;DHT22;38227;50.942;4.016;2022-11-15T04:00:41;11.90;99.90
52273;DHT22;38227;50.942;4.016;2022-11-15T04:03:18;11.90;99.90
52273;DHT22;38227;50.942;4.016;2022-11-15T04:05:52;12.00;99.90
52273;DHT22;38227;50.942;4.016;2022-11-15T04:08:22;11.90;99.90
52273;DHT22;38227;50.942;4.016;2022-11-15T04:10:56;12.00;99.90
52273;DHT22;38227;50.942;4.016;2022-11-15T04:13:26;11.90;99.90
52273;DHT22;38227;50.942;4.016;2022-11-15T04:15:57;11.90;99.90
52273;DHT22;38227;50.942;4.016;2022-11-15T04:18:29;11.90;99.90
52273;DHT22;38227;50.942;4.016;2022-11-15T04:21:00;11.90;99.90
52273;DHT22;38227;50.942;4.016;2022-11-15T04:23:56;11.90;99.90
52273;DHT22;38227;50.942;4.016;2022-11-15T04:26:46;11.80;99.90
52273;DHT22;38227;50.942;4.016;2022-11-15T04:29:17;11.80;99.90
52273;DHT22;38227;50.942;4.016;2022-11-15T04:32:05;11.80;99.90
52273;DHT22;38227;50.942;4.016;2022-11-15T04:34:37;11.70;99.90
52273;DHT22;38227;50.942;4.016;2022-11-15T04:37:24;11.70;99.90
52273;DHT22;38227;50.942;4.016;2022-11-15T04:40:03;11.60;99.90
52273;DHT22;38227;50.942;4.016;2022-11-15T04:42:35;11.50;99.90
52273;DHT22;38227;50.942;4.016;2022-11-15T04:45:17;11.50;99.90
52273;DHT22;38227;50.942;4.016;2022-11-15T04:47:49;11.50;99.90
52273;DHT22;38227;50.942;4.016;2022-11-15T04:50:25;11.50;99.90
52273;DHT22;38227;50.942;4.016;2022-11-15T04:52:57;11.50;99.90
52273;DHT22;38227;50.942;4.016;2022-11-15T04:55:46;11.50;99.90
52273;DHT22;38227;50.942;4.016;2022-11-15T04:58:24;11.60;99.90
52273;DHT22;38227;50.942;4.016;2022-11-15T05:01:12;11.40;99.90
52273;DHT22;38227;50.942;4.016;2022-11-15T05:03:45;11.40;99.90
52273;DHT22;38227;50.942;4.016;2022-11-15T05:06:43;11.50;99.90
52273;DHT22;38227;50.942;4.016;2022-11-15T05:09:16;11.50;99.90
52273;DHT22;38227;50.942;4.016;2022-11-15T05:11:53;11.60;99.90
52273;DHT22;38227;50.942;4.016;2022-11-15T05:14:41;11.50;99.90
52273;DHT22;38227;50.942;4.016;2022-11-15T05:17:20;11.40;99.90
52273;DHT22;38227;50.942;4.016;2022-11-15T05:19:55;11.40;99.90
52273;DHT22;38227;50.942;4.016;2022-11-15T05:22:37;11.30;99.90
52273;DHT22;38227;50.942;4.016;2022-11-15T05:25:10;11.30;99.90
52273;DHT22;38227;50.942;4.016;2022-11-15T05:27:46;11.20;99.90
52273;DHT22;38227;50.942;4.016;2022-11-15T05:30:17;11.10;99.90
52273;DHT22;38227;50.942;4.016;2022-11-15T05:32:55;11.10;99.90
52273;DHT22;38227;50.942;4.016;2022-11-15T05:35:37;11.20;99.90
52273;DHT22;38227;50.942;4.016;2022-11-15T05:38:09;11.30;99.90
52273;DHT22;38227;50.942;4.016;2022-11-15T05:40:59;11.30;99.90
52273;DHT22;38227;50.942;4.016;2022-11-15T05:43:39;11.30;99.90
52273;DHT22;38227;50.942;4.016;2022-11-15T05:46:14;11.30;99.90
52273;DHT22;38227;50.942;4.016;2022-11-15T05:48:53;11.20;99.90
52273;DHT22;38227;50.942;4.016;2022-11-15T05:51:31;11.10;99.90
52273;DHT22;38227;50.942;4.016;2022-11-15T05:54:17;11.10;99.90
52273;DHT22;38227;50.942;4.016;2022-11-15T05:56:50;11.10;99.90
52273;DHT22;38227;50.942;4.016;2022-11-15T05:59:27;11.20;99.90
52273;DHT22;38227;50.942;4.016;2022-11-15T06:01:56;11.10;99.90
52273;DHT22;38227;50.942;4.016;2022-11-15T06:04:39;11.10;99.90
52273;DHT22;38227;50.942;4.016;2022-11-15T06:07:11;11.10;99.90
52273;DHT22;38227;50.942;4.016;2022-11-15T06:09:53;11.10;99.90
52273;DHT22;38227;50.942;4.016;2022-11-15T06:12:31;11.10;99.90
52273;DHT22;38227;50.942;4.016;2022-11-15T06:15:09;11.00;99.90
52273;DHT22;38227;50.942;4.016;2022-11-15T06:17:43;11.00;99.90
52273;DHT22;38227;50.942;4.016;2022-11-15T06:20:26;11.00;99.90
52273;DHT22;38227;50.942;4.016;2022-11-15T06:23:04;11.00;99.90
52273;DHT22;38227;50.942;4.016;2022-11-15T06:25:46;10.90;99.90
52273;DHT22;38227;50.942;4.016;2022-11-15T06:28:23;10.90;99.90
52273;DHT22;38227;50.942;4.016;2022-11-15T06:31:08;11.00;99.90
52273;DHT22;38227;50.942;4.016;2022-11-15T06:33:43;11.00;99.90
52273;DHT22;38227;50.942;4.016;2022-11-15T06:36:15;11.00;99.90
52273;DHT22;38227;50.942;4.016;2022-11-15T06:38:47;10.90;99.90
52273;DHT22;38227;50.942;4.016;2022-11-15T06:41:18;10.90;99.90
52273;DHT22;38227;50.942;4.016;2022-11-15T06:43:52;10.80;99.90
52273;DHT22;38227;50.942;4.016;2022-11-15T06:46:22;10.80;99.90
52273;DHT22;38227;50.942;4.016;2022-11-15T06:48:55;10.70;99.90
52273;DHT22;38227;50.942;4.016;2022-11-15T06:51:32;10.80;99.90
52273;DHT22;38227;50.942;4.016;2022-11-15T06:54:12;10.80;99.90
52273;DHT22;38227;50.942;4.016;2022-11-15T06:56:41;10.80;99.90
52273;DHT22;38227;50.942;4.016;2022-11-15T06:59:13;10.80;99.90
52273;DHT22;38227;50.942;4.016;2022-11-15T07:01:42;10.80;99.90
52273;DHT22;38227;50.942;4.016;2022-11-15T07:04:13;10.90;99.90
52273;DHT22;38227;50.942;4.016;2022-11-15T07:06:42;10.90;99.90
52273;DHT22;38227;50.942;4.016;2022-11-15T07:09:13;10.80;99.90
52273;DHT22;38227;50.942;4.016;2022-11-15T07:11:44;10.70;99.90
52273;DHT22;38227;50.942;4.016;2022-11-15T07:14:15;10.80;99.90
52273;DHT22;38227;50.942;4.016;2022-11-15T07:16:54;10.90;99.90
52273;DHT22;38227;50.942;4.016;2022-11-15T07:19:27;10.90;99.90
52273;DHT22;38227;50.942;4.016;2022-11-15T07:21:58;10.80;99.90
52273;DHT22;38227;50.942;4.016;2022-11-15T07:24:32;10.80;99.90
52273;DHT22;38227;50.942;4.016;2022-11-15T07:27:01;10.80;99.90
52273;DHT22;38227;50.942;4.016;2022-11-15T07:29:35;10.80;99.90
52273;DHT22;38227;50.942;4.016;2022-11-15T07:32:04;10.90;99.90
52273;DHT22;38227;50.942;4.016;2022-11-15T07:34:34;10.80;99.90
52273;DHT22;38227;50.942;4.016;2022-11-15T07:37:09;10.80;99.90
52273;DHT22;38227;50.942;4.016;2022-11-15T07:39:48;10.80;99.90
52273;DHT22;38227;50.942;4.016;2022-11-15T07:42:20;10.90;99.90
52273;DHT22;38227;50.942;4.016;2022-11-15T07:45:08;11.10;99.90
52273;DHT22;38227;50.942;4.016;2022-11-15T07:47:49;11.20;99.90
52273;DHT22;38227;50.942;4.016;2022-11-15T07:50:21;11.40;99.90
52273;DHT22;38227;50.942;4.016;2022-11-15T07:52:57;11.70;99.90
52273;DHT22;38227;50.942;4.016;2022-11-15T07:55:32;11.90;99.90
52273;DHT22;38227;50.942;4.016;2022-11-15T07:58:08;12.10;99.90
52273;DHT22;38227;50.942;4.016;2022-11-15T08:00:41;12.30;99.90
52273;DHT22;38227;50.942;4.016;2022-11-15T08:03:15;12.50;99.90
52273;DHT22;38227;50.942;4.016;2022-11-15T08:05:56;12.60;99.90
52273;DHT22;38227;50.942;4.016;2022-11-15T08:08:34;12.90;99.90
52273;DHT22;38227;50.942;4.016;2022-11-15T08:11:16;13.40;99.90
52273;DHT22;38227;50.942;4.016;2022-11-15T08:13:49;13.70;99.90
52273;DHT22;38227;50.942;4.016;2022-11-15T08:16:24;14.00;99.90
52273;DHT22;38227;50.942;4.016;2022-11-15T08:18:59;14.40;99.90
52273;DHT22;38227;50.942;4.016;2022-11-15T08:21:41;14.90;99.90
52273;DHT22;38227;50.942;4.016;2022-11-15T08:24:28;15.00;99.90
52273;DHT22;38227;50.942;4.016;2022-11-15T08:27:07;14.80;99.90
52273;DHT22;38227;50.942;4.016;2022-11-15T08:29:47;14.50;99.90
52273;DHT22;38227;50.942;4.016;2022-11-15T08:32:16;14.60;99.90
52273;DHT22;38227;50.942;4.016;2022-11-15T08:34:56;14.40;99.90
52273;DHT22;38227;50.942;4.016;2022-11-15T08:37:36;14.30;99.90
52273;DHT22;38227;50.942;4.016;2022-11-15T08:40:09;14.30;99.90
52273;DHT22;38227;50.942;4.016;2022-11-15T08:42:39;14.40;99.90
52273;DHT22;38227;50.942;4.016;2022-11-15T08:45:18;14.70;99.90
52273;DHT22;38227;50.942;4.016;2022-11-15T08:47:51;15.00;99.90
52273;DHT22;38227;50.942;4.016;2022-11-15T08:50:34;15.10;99.90
52273;DHT22;38227;50.942;4.016;2022-11-15T08:53:06;15.10;99.90
52273;DHT22;38227;50.942;4.016;2022-11-15T08:55:40;14.80;99.90
52273;DHT22;38227;50.942;4.016;2022-11-15T08:58:21;14.50;99.90
52273;DHT22;38227;50.942;4.016;2022-11-15T09:01:00;13.80;99.90
52273;DHT22;38227;50.942;4.016;2022-11-15T09:03:33;13.80;99.90
52273;DHT22;38227;50.942;4.016;2022-11-15T09:06:10;14.20;99.90
52273;DHT22;38227;50.942;4.016;2022-11-15T09:08:51;14.80;99.90
52273;DHT22;38227;50.942;4.016;2022-11-15T09:11:23;15.30;99.90
52273;DHT22;38227;50.942;4.016;2022-11-15T09:13:56;16.00;99.90
52273;DHT22;38227;50.942;4.016;2022-11-15T09:16:39;16.60;99.90
52273;DHT22;38227;50.942;4.016;2022-11-15T09:19:11;16.70;99.90
52273;DHT22;38227;50.942;4.016;2022-11-15T09:21:44;17.00;99.90
52273;DHT22;38227;50.942;4.016;2022-11-15T09:24:15;17.10;99.90
52273;DHT22;38227;50.942;4.016;2022-11-15T09:26:44;16.90;99.90
52273;DHT22;38227;50.942;4.016;2022-11-15T09:29:14;16.70;99.90
52273;DHT22;38227;50.942;4.016;2022-11-15T09:31:44;16.60;99.90
52273;DHT22;38227;50.942;4.016;2022-11-15T09:34:14;16.00;99.90
52273;DHT22;38227;50.942;4.016;2022-11-15T09:36:47;15.50;99.90
52273;DHT22;38227;50.942;4.016;2022-11-15T09:39:16;15.10;99.90
52273;DHT22;38227;50.942;4.016;2022-11-15T09:45:55;14.40;99.90
52273;DHT22;38227;50.942;4.016;2022-11-15T09:48:24;14.20;99.90
52273;DHT22;38227;50.942;4.016;2022-11-15T09:50:56;14.10;99.90
52273;DHT22;38227;50.942;4.016;2022-11-15T09:53:35;14.00;99.90
52273;DHT22;38227;50.942;4.016;2022-11-15T09:56:16;13.90;99.90
52273;DHT22;38227;50.942;4.016;2022-11-15T10:05:20;13.60;99.90
52273;DHT22;38227;50.942;4.016;2022-11-15T10:10:57;13.60;99.90
52273;DHT22;38227;50.942;4.016;2022-11-15T10:13:30;13.70;99.90
52273;DHT22;38227;50.942;4.016;2022-11-15T10:22:34;13.50;99.90
52273;DHT22;38227;50.942;4.016;2022-11-15T10:25:30;13.60;99.90
52273;DHT22;38227;50.942;4.016;2022-11-15T10:28:27;13.80;99.90
52273;DHT22;38227;50.942;4.016;2022-11-15T10:31:01;14.00;99.90
52273;DHT22;38227;50.942;4.016;2022-11-15T10:33:59;14.10;99.90
52273;DHT22;38227;50.942;4.016;2022-11-15T10:37:01;14.20;99.90
52273;DHT22;38227;50.942;4.016;2022-11-15T10:39:34;14.20;99.90
52273;DHT22;38227;50.942;4.016;2022-11-15T10:42:28;14.40;99.90
52273;DHT22;38227;50.942;4.016;2022-11-15T10:45:00;14.40;99.90
52273;DHT22;38227;50.942;4.016;2022-11-15T10:47:33;14.50;99.90
52273;DHT22;38227;50.942;4.016;2022-11-15T10:50:31;14.40;99.90
52273;DHT22;38227;50.942;4.016;2022-11-15T10:56:13;14.40;99.90
52273;DHT22;38227;50.942;4.016;2022-11-15T10:58:55;14.40;99.90
52273;DHT22;38227;50.942;4.016;2022-11-15T11:01:28;14.40;99.90
52273;DHT22;38227;50.942;4.016;2022-11-15T11:04:09;14.60;99.90
52273;DHT22;38227;50.942;4.016;2022-11-15T11:06:59;14.70;99.90
52273;DHT22;38227;50.942;4.016;2022-11-15T11:09:39;14.50;99.90
52273;DHT22;38227;50.942;4.016;2022-11-15T11:12:11;14.50;99.90
52273;DHT22;38227;50.942;4.016;2022-11-15T11:15:09;14.40;99.90
52273;DHT22;38227;50.942;4.016;2022-11-15T11:20:50;14.40;99.90
52273;DHT22;38227;50.942;4.016;2022-11-15T11:23:44;14.30;99.90
52273;DHT22;38227;50.942;4.016;2022-11-15T11:33:15;14.30;99.90
52273;DHT22;38227;50.942;4.016;2022-11-15T11:42:57;14.30;99.90
52273;DHT22;38227;50.942;4.016;2022-11-15T11:45:58;14.30;99.90
52273;DHT22;38227;50.942;4.016;2022-11-15T11:48:56;14.20;99.90
52273;DHT22;38227;50.942;4.016;2022-11-15T11:51:53;14.40;99.90
52273;DHT22;38227;50.942;4.016;2022-11-15T11:58:16;14.30;99.90
52273;DHT22;38227;50.942;4.016;2022-11-15T12:00:52;14.30;99.90
52273;DHT22;38227;50.942;4.016;2022-11-15T12:06:58;14.30;99.90
52273;DHT22;38227;50.942;4.016;2022-11-15T12:10:28;14.30;99.90
52273;DHT22;38227;50.942;4.016;2022-11-15T12:13:13;14.30;99.90
52273;DHT22;38227;50.942;4.016;2022-11-15T12:16:05;14.30;99.90
52273;DHT22;38227;50.942;4.016;2022-11-15T12:18:37;14.30;99.90
52273;DHT22;38227;50.942;4.016;2022-11-15T12:24:13;14.50;99.90
52273;DHT22;38227;50.942;4.016;2022-11-15T12:26:48;14.50;99.90
52273;DHT22;38227;50.942;4.016;2022-11-15T12:32:36;14.50;99.90
52273;DHT22;38227;50.942;4.016;2022-11-15T12:35:36;14.50;99.90
52273;DHT22;38227;50.942;4.016;2022-11-15T12:38:08;14.50;99.90
52273;DHT22;38227;50.942;4.016;2022-11-15T12:41:11;14.40;99.90
52273;DHT22;38227;50.942;4.016;2022-11-15T12:43:47;14.50;99.90
52273;DHT22;38227;50.942;4.016;2022-11-15T12:49:49;14.60;99.90
52273;DHT22;38227;50.942;4.016;2022-11-15T12:52:17;14.50;99.90
52273;DHT22;38227;50.942;4.016;2022-11-15T12:54:53;14.60;99.90
52273;DHT22;38227;50.942;4.016;2022-11-15T12:57:41;14.50;99.90
52273;DHT22;38227;50.942;4.016;2022-11-15T13:03:23;14.70;99.90
52273;DHT22;38227;50.942;4.016;2022-11-15T13:05:58;14.60;99.90
52273;DHT22;38227;50.942;4.016;2022-11-15T13:08:37;14.60;99.90
52273;DHT22;38227;50.942;4.016;2022-11-15T13:11:42;14.60;99.90
52273;DHT22;38227;50.942;4.016;2022-11-15T13:17:38;14.40;99.90
52273;DHT22;38227;50.942;4.016;2022-11-15T13:20:29;14.40;99.90
52273;DHT22;38227;50.942;4.016;2022-11-15T13:26:15;14.50;99.90
52273;DHT22;38227;50.942;4.016;2022-11-15T13:28:48;14.40;99.90
52273;DHT22;38227;50.942;4.016;2022-11-15T13:31:49;14.40;99.90
52273;DHT22;38227;50.942;4.016;2022-11-15T13:34:44;14.60;99.90
52273;DHT22;38227;50.942;4.016;2022-11-15T13:37:40;14.60;99.90
52273;DHT22;38227;50.942;4.016;2022-11-15T13:40:36;14.50;99.90
52273;DHT22;38227;50.942;4.016;2022-11-15T13:43:36;14.50;99.90
52273;DHT22;38227;50.942;4.016;2022-11-15T13:46:28;14.60;99.90
52273;DHT22;38227;50.942;4.016;2022-11-15T13:49:12;14.50;99.90
52273;DHT22;38227;50.942;4.016;2022-11-15T13:51:57;14.40;99.90
52273;DHT22;38227;50.942;4.016;2022-11-15T13:54:40;14.40;99.90
52273;DHT22;38227;50.942;4.016;2022-11-15T13:57:21;14.40;99.90
52273;DHT22;38227;50.942;4.016;2022-11-15T13:59:58;14.30;99.90
52273;DHT22;38227;50.942;4.016;2022-11-15T14:02:35;14.40;99.90
52273;DHT22;38227;50.942;4.016;2022-11-15T14:11:18;14.30;99.90
52273;DHT22;38227;50.942;4.016;2022-11-15T14:14:13;14.30;99.90
52273;DHT22;38227;50.942;4.016;2022-11-15T14:16:54;14.10;99.90
52273;DHT22;38227;50.942;4.016;2022-11-15T14:19:44;14.00;99.90
52273;DHT22;38227;50.942;4.016;2022-11-15T14:22:33;13.90;99.90
52273;DHT22;38227;50.942;4.016;2022-11-15T14:25:21;13.80;99.90
52273;DHT22;38227;50.942;4.016;2022-11-15T14:28:09;13.80;99.90
52273;DHT22;38227;50.942;4.016;2022-11-15T14:30:44;13.70;99.90
52273;DHT22;38227;50.942;4.016;2022-11-15T14:33:37;13.70;99.90
52273;DHT22;38227;50.942;4.016;2022-11-15T14:36:20;13.50;99.90
52273;DHT22;38227;50.942;4.016;2022-11-15T14:39:00;13.60;99.90
52273;DHT22;38227;50.942;4.016;2022-11-15T14:41:35;13.50;99.90
52273;DHT22;38227;50.942;4.016;2022-11-15T14:44:11;13.50;99.90
52273;DHT22;38227;50.942;4.016;2022-11-15T14:46:44;13.40;99.90
52273;DHT22;38227;50.942;4.016;2022-11-15T14:49:14;13.30;99.90
52273;DHT22;38227;50.942;4.016;2022-11-15T14:51:55;13.30;99.90
52273;DHT22;38227;50.942;4.016;2022-11-15T14:54:27;13.20;99.90
52273;DHT22;38227;50.942;4.016;2022-11-15T14:57:00;13.10;99.90
52273;DHT22;38227;50.942;4.016;2022-11-15T14:59:32;13.10;99.90
52273;DHT22;38227;50.942;4.016;2022-11-15T15:02:14;13.10;99.90
52273;DHT22;38227;50.942;4.016;2022-11-15T15:04:53;13.00;99.90
52273;DHT22;38227;50.942;4.016;2022-11-15T15:07:31;13.00;99.90
52273;DHT22;38227;50.942;4.016;2022-11-15T15:10:04;12.90;99.90
52273;DHT22;38227;50.942;4.016;2022-11-15T15:12:36;12.80;99.90
52273;DHT22;38227;50.942;4.016;2022-11-15T15:15:40;12.80;99.90
52273;DHT22;38227;50.942;4.016;2022-11-15T15:18:17;12.80;99.90
52273;DHT22;38227;50.942;4.016;2022-11-15T15:20:57;12.80;99.90
52273;DHT22;38227;50.942;4.016;2022-11-15T15:23:34;12.80;99.90
52273;DHT22;38227;50.942;4.016;2022-11-15T15:26:08;12.70;99.90
52273;DHT22;38227;50.942;4.016;2022-11-15T15:28:38;12.80;99.90
52273;DHT22;38227;50.942;4.016;2022-11-15T15:31:09;12.90;99.90
52273;DHT22;38227;50.942;4.016;2022-11-15T15:33:41;12.90;99.90
52273;DHT22;38227;50.942;4.016;2022-11-15T15:36:13;12.80;99.90
52273;DHT22;38227;50.942;4.016;2022-11-15T15:38:45;12.90;99.90
52273;DHT22;38227;50.942;4.016;2022-11-15T15:41:15;12.80;99.90
52273;DHT22;38227;50.942;4.016;2022-11-15T15:43:46;12.80;99.90
52273;DHT22;38227;50.942;4.016;2022-11-15T15:46:18;12.80;99.90
52273;DHT22;38227;50.942;4.016;2022-11-15T15:48:48;12.90;99.90
52273;DHT22;38227;50.942;4.016;2022-11-15T15:51:18;12.90;99.90
52273;DHT22;38227;50.942;4.016;2022-11-15T15:53:53;12.90;99.90
52273;DHT22;38227;50.942;4.016;2022-11-15T15:56:27;12.90;99.90
52273;DHT22;38227;50.942;4.016;2022-11-15T15:59:06;12.90;99.90
52273;DHT22;38227;50.942;4.016;2022-11-15T16:01:48;12.90;99.90
52273;DHT22;38227;50.942;4.016;2022-11-15T16:04:21;12.90;99.90
52273;DHT22;38227;50.942;4.016;2022-11-15T16:06:59;12.90;99.90
52273;DHT22;38227;50.942;4.016;2022-11-15T16:09:30;12.90;99.90
52273;DHT22;38227;50.942;4.016;2022-11-15T16:12:16;12.80;99.90
52273;DHT22;38227;50.942;4.016;2022-11-15T16:14:49;12.80;99.90
52273;DHT22;38227;50.942;4.016;2022-11-15T16:17:22;12.90;99.90
52273;DHT22;38227;50.942;4.016;2022-11-15T16:19:55;12.80;99.90
52273;DHT22;38227;50.942;4.016;2022-11-15T16:22:30;12.90;99.90
52273;DHT22;38227;50.942;4.016;2022-11-15T16:25:11;13.00;99.90
52273;DHT22;38227;50.942;4.016;2022-11-15T16:27:58;13.00;99.90
52273;DHT22;38227;50.942;4.016;2022-11-15T16:30:47;12.90;99.90
52273;DHT22;38227;50.942;4.016;2022-11-15T16:33:34;13.00;99.90
52273;DHT22;38227;50.942;4.016;2022-11-15T16:36:25;13.00;99.90
52273;DHT22;38227;50.942;4.016;2022-11-15T16:38:58;13.00;99.90
52273;DHT22;38227;50.942;4.016;2022-11-15T16:41:30;13.00;99.90
52273;DHT22;38227;50.942;4.016;2022-11-15T16:44:02;13.00;99.90
52273;DHT22;38227;50.942;4.016;2022-11-15T16:46:32;13.00;99.90
52273;DHT22;38227;50.942;4.016;2022-11-15T16:49:03;13.00;99.90
52273;DHT22;38227;50.942;4.016;2022-11-15T16:51:31;13.00;99.90
52273;DHT22;38227;50.942;4.016;2022-11-15T16:54:12;13.10;99.90
52273;DHT22;38227;50.942;4.016;2022-11-15T16:56:51;13.10;99.90
52273;DHT22;38227;50.942;4.016;2022-11-15T16:59:20;13.10;99.90
52273;DHT22;38227;50.942;4.016;2022-11-15T17:01:59;13.10;99.90
52273;DHT22;38227;50.942;4.016;2022-11-15T17:04:29;13.20;99.90
52273;DHT22;38227;50.942;4.016;2022-11-15T17:07:08;13.20;99.90
52273;DHT22;38227;50.942;4.016;2022-11-15T17:09:39;13.10;99.90
52273;DHT22;38227;50.942;4.016;2022-11-15T17:12:10;13.00;99.90
52273;DHT22;38227;50.942;4.016;2022-11-15T17:14:52;13.00;99.90
52273;DHT22;38227;50.942;4.016;2022-11-15T17:17:22;13.10;99.90
52273;DHT22;38227;50.942;4.016;2022-11-15T17:20:02;13.10;99.90
52273;DHT22;38227;50.942;4.016;2022-11-15T17:22:37;13.10;99.90
52273;DHT22;38227;50.942;4.016;2022-11-15T17:25:15;13.10;99.90
52273;DHT22;38227;50.942;4.016;2022-11-15T17:27:48;13.20;99.90
52273;DHT22;38227;50.942;4.016;2022-11-15T17:30:19;13.10;99.90
52273;DHT22;38227;50.942;4.016;2022-11-15T17:32:57;13.10;99.90
52273;DHT22;38227;50.942;4.016;2022-11-15T17:35:31;13.00;99.90
52273;DHT22;38227;50.942;4.016;2022-11-15T17:38:04;13.00;99.90
52273;DHT22;38227;50.942;4.016;2022-11-15T17:40:36;13.00;99.90
52273;DHT22;38227;50.942;4.016;2022-11-15T17:43:15;13.00;99.90
52273;DHT22;38227;50.942;4.016;2022-11-15T17:45:45;13.00;99.90
52273;DHT22;38227;50.942;4.016;2022-11-15T17:48:18;13.00;99.90
52273;DHT22;38227;50.942;4.016;2022-11-15T17:50:56;13.10;99.90
52273;DHT22;38227;50.942;4.016;2022-11-15T17:53:26;13.00;99.90
52273;DHT22;38227;50.942;4.016;2022-11-15T17:56:03;13.10;99.90
52273;DHT22;38227;50.942;4.016;2022-11-15T17:58:34;13.10;99.90
52273;DHT22;38227;50.942;4.016;2022-11-15T18:01:40;13.00;99.90
52273;DHT22;38227;50.942;4.016;2022-11-15T18:04:11;13.00;99.90
52273;DHT22;38227;50.942;4.016;2022-11-15T18:06:41;12.90;99.90
52273;DHT22;38227;50.942;4.016;2022-11-15T18:09:26;12.90;99.90
52273;DHT22;38227;50.942;4.016;2022-11-15T18:11:58;12.80;99.90
52273;DHT22;38227;50.942;4.016;2022-11-15T18:14:30;12.90;99.90
52273;DHT22;38227;50.942;4.016;2022-11-15T18:17:18;13.00;99.90
52273;DHT22;38227;50.942;4.016;2022-11-15T18:19:49;13.10;99.90